sensor_id;sensor_type;location;lat;lon;timestamp;P1;durP1;ratioP1;P2;durP2;ratioP2
20036;SDS011;10179;42.640;23.312;2022-08-02T00:01:48;2.53;;;1.77;;
20036;SDS011;10179;42.640;23.312;2022-08-02T00:04:13;3.63;;;1.52;;
20036;SDS011;10179;42.640;23.312;2022-08-02T00:06:39;3.40;;;1.50;;
20036;SDS011;10179;42.640;23.312;2022-08-02T00:09:04;2.03;;;1.40;;
20036;SDS011;10179;42.640;23.312;2022-08-02T00:11:30;3.05;;;1.40;;
20036;SDS011;10179;42.640;23.312;2022-08-02T00:13:56;1.80;;;1.50;;
20036;SDS011;10179;42.640;23.312;2022-08-02T00:16:22;3.20;;;1.65;;
20036;SDS011;10179;42.640;23.312;2022-08-02T00:18:47;2.75;;;1.50;;
20036;SDS011;10179;42.640;23.312;2022-08-02T00:21:13;1.77;;;1.42;;
20036;SDS011;10179;42.640;23.312;2022-08-02T00:23:39;1.90;;;1.40;;
20036;SDS011;10179;42.640;23.312;2022-08-02T00:26:05;2.72;;;1.42;;
20036;SDS011;10179;42.640;23.312;2022-08-02T00:28:30;2.50;;;1.70;;
20036;SDS011;10179;42.640;23.312;2022-08-02T00:30:56;2.35;;;1.50;;
20036;SDS011;10179;42.640;23.312;2022-08-02T00:33:22;4.22;;;1.60;;
20036;SDS011;10179;42.640;23.312;2022-08-02T00:35:48;2.97;;;1.58;;
20036;SDS011;10179;42.640;23.312;2022-08-02T00:38:14;3.13;;;1.88;;
20036;SDS011;10179;42.640;23.312;2022-08-02T00:40:40;4.22;;;1.70;;
20036;SDS011;10179;42.640;23.312;2022-08-02T00:43:06;2.85;;;1.70;;
20036;SDS011;10179;42.640;23.312;2022-08-02T00:45:35;2.03;;;1.60;;
20036;SDS011;10179;42.640;23.312;2022-08-02T00:48:03;2.78;;;1.60;;
20036;SDS011;10179;42.640;23.312;2022-08-02T00:50:30;4.78;;;1.83;;
20036;SDS011;10179;42.640;23.312;2022-08-02T00:52:56;4.70;;;1.70;;
20036;SDS011;10179;42.640;23.312;2022-08-02T00:55:22;5.40;;;1.90;;
20036;SDS011;10179;42.640;23.312;2022-08-02T00:57:48;3.47;;;1.65;;
20036;SDS011;10179;42.640;23.312;2022-08-02T01:00:14;4.78;;;1.60;;
20036;SDS011;10179;42.640;23.312;2022-08-02T01:02:40;2.78;;;1.52;;
20036;SDS011;10179;42.640;23.312;2022-08-02T01:05:05;2.50;;;1.13;;
20036;SDS011;10179;42.640;23.312;2022-08-02T01:07:31;1.55;;;1.45;;
20036;SDS011;10179;42.640;23.312;2022-08-02T01:09:57;3.08;;;1.45;;
20036;SDS011;10179;42.640;23.312;2022-08-02T01:12:24;2.33;;;1.38;;
20036;SDS011;10179;42.640;23.312;2022-08-02T01:14:50;2.75;;;1.40;;
20036;SDS011;10179;42.640;23.312;2022-08-02T01:17:19;2.60;;;1.50;;
20036;SDS011;10179;42.640;23.312;2022-08-02T01:19:57;1.92;;;1.25;;
20036;SDS011;10179;42.640;23.312;2022-08-02T01:22:43;1.65;;;1.42;;
20036;SDS011;10179;42.640;23.312;2022-08-02T01:31:11;3.30;;;1.60;;
20036;SDS011;10179;42.640;23.312;2022-08-02T01:33:50;4.45;;;2.13;;
20036;SDS011;10179;42.640;23.312;2022-08-02T01:36:30;2.42;;;2.10;;
20036;SDS011;10179;42.640;23.312;2022-08-02T01:39:00;3.00;;;2.35;;
20036;SDS011;10179;42.640;23.312;2022-08-02T01:41:28;5.20;;;2.55;;
20036;SDS011;10179;42.640;23.312;2022-08-02T01:43:57;4.60;;;2.22;;
20036;SDS011;10179;42.640;23.312;2022-08-02T01:46:24;3.90;;;2.42;;
20036;SDS011;10179;42.640;23.312;2022-08-02T01:48:52;4.55;;;2.78;;
20036;SDS011;10179;42.640;23.312;2022-08-02T01:51:21;4.20;;;2.33;;
20036;SDS011;10179;42.640;23.312;2022-08-02T01:54:10;3.17;;;2.20;;
20036;SDS011;10179;42.640;23.312;2022-08-02T01:56:38;4.53;;;2.40;;
20036;SDS011;10179;42.640;23.312;2022-08-02T01:59:07;3.53;;;2.55;;
20036;SDS011;10179;42.640;23.312;2022-08-02T02:01:35;4.05;;;2.05;;
20036;SDS011;10179;42.640;23.312;2022-08-02T02:04:02;2.28;;;1.88;;
20036;SDS011;10179;42.640;23.312;2022-08-02T02:06:30;1.77;;;1.30;;
20036;SDS011;10179;42.640;23.312;2022-08-02T02:08:57;3.33;;;2.10;;
20036;SDS011;10179;42.640;23.312;2022-08-02T02:11:23;2.50;;;1.70;;
20036;SDS011;10179;42.640;23.312;2022-08-02T02:13:48;3.90;;;2.08;;
20036;SDS011;10179;42.640;23.312;2022-08-02T02:16:14;3.30;;;1.80;;
20036;SDS011;10179;42.640;23.312;2022-08-02T02:18:41;2.65;;;1.73;;
20036;SDS011;10179;42.640;23.312;2022-08-02T02:21:09;4.63;;;1.50;;
20036;SDS011;10179;42.640;23.312;2022-08-02T02:23:36;3.10;;;1.88;;
20036;SDS011;10179;42.640;23.312;2022-08-02T02:26:02;2.50;;;1.52;;
20036;SDS011;10179;42.640;23.312;2022-08-02T02:28:30;3.30;;;1.88;;
20036;SDS011;10179;42.640;23.312;2022-08-02T02:31:01;4.53;;;2.25;;
20036;SDS011;10179;42.640;23.312;2022-08-02T02:33:30;3.92;;;1.80;;
20036;SDS011;10179;42.640;23.312;2022-08-02T02:35:59;3.22;;;1.60;;
20036;SDS011;10179;42.640;23.312;2022-08-02T02:38:27;2.47;;;2.03;;
20036;SDS011;10179;42.640;23.312;2022-08-02T02:40:57;4.65;;;2.08;;
20036;SDS011;10179;42.640;23.312;2022-08-02T02:43:26;6.32;;;2.17;;
20036;SDS011;10179;42.640;23.312;2022-08-02T02:45:54;2.65;;;2.00;;
20036;SDS011;10179;42.640;23.312;2022-08-02T02:48:21;2.20;;;1.90;;
20036;SDS011;10179;42.640;23.312;2022-08-02T02:50:47;2.45;;;1.60;;
20036;SDS011;10179;42.640;23.312;2022-08-02T02:53:13;2.30;;;2.10;;
20036;SDS011;10179;42.640;23.312;2022-08-02T02:55:42;3.40;;;1.95;;
20036;SDS011;10179;42.640;23.312;2022-08-02T02:58:08;2.55;;;2.17;;
20036;SDS011;10179;42.640;23.312;2022-08-02T03:00:35;3.15;;;2.10;;
20036;SDS011;10179;42.640;23.312;2022-08-02T03:03:19;4.40;;;2.00;;
20036;SDS011;10179;42.640;23.312;2022-08-02T03:05:45;4.88;;;2.03;;
20036;SDS011;10179;42.640;23.312;2022-08-02T03:08:11;3.10;;;2.20;;
20036;SDS011;10179;42.640;23.312;2022-08-02T03:10:37;5.47;;;2.25;;
20036;SDS011;10179;42.640;23.312;2022-08-02T03:13:03;6.25;;;2.60;;
20036;SDS011;10179;42.640;23.312;2022-08-02T03:15:29;4.40;;;2.30;;
20036;SDS011;10179;42.640;23.312;2022-08-02T03:17:56;4.25;;;2.67;;
20036;SDS011;10179;42.640;23.312;2022-08-02T03:20:21;4.60;;;2.78;;
20036;SDS011;10179;42.640;23.312;2022-08-02T03:22:47;5.85;;;2.85;;
20036;SDS011;10179;42.640;23.312;2022-08-02T03:25:13;4.35;;;2.70;;
20036;SDS011;10179;42.640;23.312;2022-08-02T03:27:39;5.05;;;2.53;;
20036;SDS011;10179;42.640;23.312;2022-08-02T03:30:05;2.83;;;2.17;;
20036;SDS011;10179;42.640;23.312;2022-08-02T03:32:33;5.50;;;2.53;;
20036;SDS011;10179;42.640;23.312;2022-08-02T03:35:00;5.15;;;2.50;;
20036;SDS011;10179;42.640;23.312;2022-08-02T03:37:26;5.25;;;2.40;;
20036;SDS011;10179;42.640;23.312;2022-08-02T03:39:53;3.42;;;2.60;;
20036;SDS011;10179;42.640;23.312;2022-08-02T03:42:20;3.35;;;2.40;;
20036;SDS011;10179;42.640;23.312;2022-08-02T03:44:47;3.40;;;2.60;;
20036;SDS011;10179;42.640;23.312;2022-08-02T03:47:13;2.42;;;2.17;;
20036;SDS011;10179;42.640;23.312;2022-08-02T03:49:40;4.28;;;2.47;;
20036;SDS011;10179;42.640;23.312;2022-08-02T03:52:07;3.45;;;2.35;;
20036;SDS011;10179;42.640;23.312;2022-08-02T03:54:33;5.03;;;2.35;;
20036;SDS011;10179;42.640;23.312;2022-08-02T03:56:58;4.22;;;2.50;;
20036;SDS011;10179;42.640;23.312;2022-08-02T03:59:24;3.47;;;2.17;;
20036;SDS011;10179;42.640;23.312;2022-08-02T04:01:49;5.30;;;2.50;;
20036;SDS011;10179;42.640;23.312;2022-08-02T04:04:15;7.30;;;2.60;;
20036;SDS011;10179;42.640;23.312;2022-08-02T04:06:40;3.80;;;2.75;;
20036;SDS011;10179;42.640;23.312;2022-08-02T04:09:06;5.10;;;2.28;;
20036;SDS011;10179;42.640;23.312;2022-08-02T04:11:31;5.38;;;2.55;;
20036;SDS011;10179;42.640;23.312;2022-08-02T04:14:02;5.95;;;2.90;;
20036;SDS011;10179;42.640;23.312;2022-08-02T04:16:43;3.55;;;2.60;;
20036;SDS011;10179;42.640;23.312;2022-08-02T04:21:57;4.95;;;2.90;;
20036;SDS011;10179;42.640;23.312;2022-08-02T04:24:26;3.67;;;2.63;;
20036;SDS011;10179;42.640;23.312;2022-08-02T04:26:56;4.53;;;2.83;;
20036;SDS011;10179;42.640;23.312;2022-08-02T04:29:23;6.38;;;3.00;;
20036;SDS011;10179;42.640;23.312;2022-08-02T04:31:51;6.10;;;2.90;;
20036;SDS011;10179;42.640;23.312;2022-08-02T04:34:18;4.22;;;2.80;;
20036;SDS011;10179;42.640;23.312;2022-08-02T04:36:45;3.67;;;2.55;;
20036;SDS011;10179;42.640;23.312;2022-08-02T04:39:11;6.60;;;2.60;;
20036;SDS011;10179;42.640;23.312;2022-08-02T04:41:37;8.45;;;3.03;;
20036;SDS011;10179;42.640;23.312;2022-08-02T04:44:03;4.35;;;2.70;;
20036;SDS011;10179;42.640;23.312;2022-08-02T04:46:29;6.43;;;2.60;;
20036;SDS011;10179;42.640;23.312;2022-08-02T04:48:55;6.78;;;3.03;;
20036;SDS011;10179;42.640;23.312;2022-08-02T04:51:20;4.40;;;3.08;;
20036;SDS011;10179;42.640;23.312;2022-08-02T04:53:45;4.82;;;3.38;;
20036;SDS011;10179;42.640;23.312;2022-08-02T04:56:11;9.70;;;2.80;;
20036;SDS011;10179;42.640;23.312;2022-08-02T04:58:36;3.67;;;2.75;;
20036;SDS011;10179;42.640;23.312;2022-08-02T05:01:02;5.50;;;3.50;;
20036;SDS011;10179;42.640;23.312;2022-08-02T05:03:27;6.68;;;3.33;;
20036;SDS011;10179;42.640;23.312;2022-08-02T05:05:52;6.35;;;3.42;;
20036;SDS011;10179;42.640;23.312;2022-08-02T05:08:18;4.30;;;3.05;;
20036;SDS011;10179;42.640;23.312;2022-08-02T05:10:43;5.32;;;3.60;;
20036;SDS011;10179;42.640;23.312;2022-08-02T05:13:09;7.63;;;3.88;;
20036;SDS011;10179;42.640;23.312;2022-08-02T05:15:34;8.45;;;4.47;;
20036;SDS011;10179;42.640;23.312;2022-08-02T05:18:00;9.95;;;4.82;;
20036;SDS011;10179;42.640;23.312;2022-08-02T05:20:25;7.65;;;4.18;;
20036;SDS011;10179;42.640;23.312;2022-08-02T05:22:51;8.48;;;3.30;;
20036;SDS011;10179;42.640;23.312;2022-08-02T05:25:17;7.82;;;3.25;;
20036;SDS011;10179;42.640;23.312;2022-08-02T05:27:42;7.35;;;3.60;;
20036;SDS011;10179;42.640;23.312;2022-08-02T05:30:08;7.45;;;3.50;;
20036;SDS011;10179;42.640;23.312;2022-08-02T05:32:34;7.88;;;4.68;;
20036;SDS011;10179;42.640;23.312;2022-08-02T05:35:07;11.45;;;5.30;;
20036;SDS011;10179;42.640;23.312;2022-08-02T05:37:33;13.55;;;6.35;;
20036;SDS011;10179;42.640;23.312;2022-08-02T05:39:58;8.02;;;4.07;;
20036;SDS011;10179;42.640;23.312;2022-08-02T05:42:24;8.07;;;4.20;;
20036;SDS011;10179;42.640;23.312;2022-08-02T05:44:49;12.23;;;4.30;;
20036;SDS011;10179;42.640;23.312;2022-08-02T05:47:15;17.23;;;4.63;;
20036;SDS011;10179;42.640;23.312;2022-08-02T05:49:40;7.45;;;4.72;;
20036;SDS011;10179;42.640;23.312;2022-08-02T05:52:13;11.35;;;3.70;;
20036;SDS011;10179;42.640;23.312;2022-08-02T05:57:40;7.95;;;3.08;;
20036;SDS011;10179;42.640;23.312;2022-08-02T06:00:27;9.60;;;4.10;;
20036;SDS011;10179;42.640;23.312;2022-08-02T06:05:41;5.22;;;2.50;;
20036;SDS011;10179;42.640;23.312;2022-08-02T06:08:32;5.30;;;2.90;;
20036;SDS011;10179;42.640;23.312;2022-08-02T06:11:03;3.83;;;2.10;;
20036;SDS011;10179;42.640;23.312;2022-08-02T06:13:30;5.40;;;2.97;;
20036;SDS011;10179;42.640;23.312;2022-08-02T06:15:57;4.28;;;3.08;;
20036;SDS011;10179;42.640;23.312;2022-08-02T06:18:27;4.20;;;2.95;;
20036;SDS011;10179;42.640;23.312;2022-08-02T06:20:55;5.35;;;2.67;;
20036;SDS011;10179;42.640;23.312;2022-08-02T06:23:23;11.52;;;3.25;;
20036;SDS011;10179;42.640;23.312;2022-08-02T06:25:50;7.80;;;3.35;;
20036;SDS011;10179;42.640;23.312;2022-08-02T06:28:17;7.68;;;3.88;;
20036;SDS011;10179;42.640;23.312;2022-08-02T06:30:43;5.18;;;2.17;;
20036;SDS011;10179;42.640;23.312;2022-08-02T06:33:09;3.20;;;1.85;;
20036;SDS011;10179;42.640;23.312;2022-08-02T06:35:44;1.63;;;1.25;;
20036;SDS011;10179;42.640;23.312;2022-08-02T06:38:18;2.25;;;1.58;;
20036;SDS011;10179;42.640;23.312;2022-08-02T06:40:55;2.13;;;1.52;;
20036;SDS011;10179;42.640;23.312;2022-08-02T06:43:37;4.47;;;1.55;;
20036;SDS011;10179;42.640;23.312;2022-08-02T06:46:11;3.92;;;1.60;;
20036;SDS011;10179;42.640;23.312;2022-08-02T06:48:37;4.38;;;1.60;;
20036;SDS011;10179;42.640;23.312;2022-08-02T06:51:02;2.78;;;1.30;;
20036;SDS011;10179;42.640;23.312;2022-08-02T06:53:29;5.20;;;1.20;;
20036;SDS011;10179;42.640;23.312;2022-08-02T06:55:54;3.15;;;1.20;;
20036;SDS011;10179;42.640;23.312;2022-08-02T06:58:20;1.50;;;1.30;;
20036;SDS011;10179;42.640;23.312;2022-08-02T07:00:46;4.25;;;2.65;;
20036;SDS011;10179;42.640;23.312;2022-08-02T07:03:11;1.95;;;1.42;;
20036;SDS011;10179;42.640;23.312;2022-08-02T07:05:37;4.55;;;1.40;;
20036;SDS011;10179;42.640;23.312;2022-08-02T07:08:04;1.98;;;1.35;;
20036;SDS011;10179;42.640;23.312;2022-08-02T07:10:29;2.75;;;1.50;;
20036;SDS011;10179;42.640;23.312;2022-08-02T07:12:55;4.05;;;1.50;;
20036;SDS011;10179;42.640;23.312;2022-08-02T07:15:20;2.60;;;1.50;;
20036;SDS011;10179;42.640;23.312;2022-08-02T07:17:46;4.57;;;1.35;;
20036;SDS011;10179;42.640;23.312;2022-08-02T07:20:11;3.88;;;2.65;;
20036;SDS011;10179;42.640;23.312;2022-08-02T07:22:39;2.10;;;1.10;;
20036;SDS011;10179;42.640;23.312;2022-08-02T07:25:05;1.35;;;1.20;;
20036;SDS011;10179;42.640;23.312;2022-08-02T07:27:31;2.03;;;1.23;;
20036;SDS011;10179;42.640;23.312;2022-08-02T07:29:57;1.55;;;1.20;;
20036;SDS011;10179;42.640;23.312;2022-08-02T07:32:24;5.72;;;3.55;;
20036;SDS011;10179;42.640;23.312;2022-08-02T07:34:52;4.57;;;1.90;;
20036;SDS011;10179;42.640;23.312;2022-08-02T07:37:19;2.58;;;1.83;;
20036;SDS011;10179;42.640;23.312;2022-08-02T07:39:45;3.30;;;1.90;;
20036;SDS011;10179;42.640;23.312;2022-08-02T07:42:11;3.75;;;2.05;;
20036;SDS011;10179;42.640;23.312;2022-08-02T07:44:36;5.63;;;2.15;;
20036;SDS011;10179;42.640;23.312;2022-08-02T07:47:02;1.50;;;1.13;;
20036;SDS011;10179;42.640;23.312;2022-08-02T07:49:29;4.57;;;1.60;;
20036;SDS011;10179;42.640;23.312;2022-08-02T07:51:55;1.10;;;0.85;;
20036;SDS011;10179;42.640;23.312;2022-08-02T07:54:22;2.03;;;1.50;;
20036;SDS011;10179;42.640;23.312;2022-08-02T07:56:48;3.88;;;2.20;;
20036;SDS011;10179;42.640;23.312;2022-08-02T07:59:13;3.53;;;1.08;;
20036;SDS011;10179;42.640;23.312;2022-08-02T08:01:39;1.20;;;1.00;;
20036;SDS011;10179;42.640;23.312;2022-08-02T08:04:05;1.25;;;0.85;;
20036;SDS011;10179;42.640;23.312;2022-08-02T08:06:31;1.30;;;1.10;;
20036;SDS011;10179;42.640;23.312;2022-08-02T08:08:57;2.13;;;1.48;;
20036;SDS011;10179;42.640;23.312;2022-08-02T08:11:23;1.00;;;0.90;;
20036;SDS011;10179;42.640;23.312;2022-08-02T08:13:49;1.00;;;0.70;;
20036;SDS011;10179;42.640;23.312;2022-08-02T08:16:14;0.90;;;0.70;;
20036;SDS011;10179;42.640;23.312;2022-08-02T08:18:40;3.00;;;1.42;;
20036;SDS011;10179;42.640;23.312;2022-08-02T08:21:06;1.10;;;1.00;;
20036;SDS011;10179;42.640;23.312;2022-08-02T08:23:31;3.33;;;0.98;;
20036;SDS011;10179;42.640;23.312;2022-08-02T08:25:57;2.15;;;1.02;;
20036;SDS011;10179;42.640;23.312;2022-08-02T08:28:22;1.40;;;1.30;;
20036;SDS011;10179;42.640;23.312;2022-08-02T08:30:48;3.38;;;1.30;;
20036;SDS011;10179;42.640;23.312;2022-08-02T08:33:13;3.05;;;1.63;;
20036;SDS011;10179;42.640;23.312;2022-08-02T08:35:39;6.53;;;1.20;;
20036;SDS011;10179;42.640;23.312;2022-08-02T08:38:05;2.17;;;0.90;;
20036;SDS011;10179;42.640;23.312;2022-08-02T08:40:31;1.10;;;1.00;;
20036;SDS011;10179;42.640;23.312;2022-08-02T08:42:57;2.17;;;1.27;;
20036;SDS011;10179;42.640;23.312;2022-08-02T08:45:22;3.03;;;1.00;;
20036;SDS011;10179;42.640;23.312;2022-08-02T08:47:52;3.25;;;2.78;;
20036;SDS011;10179;42.640;23.312;2022-08-02T08:50:24;3.53;;;1.30;;
20036;SDS011;10179;42.640;23.312;2022-08-02T08:55:28;1.30;;;0.90;;
20036;SDS011;10179;42.640;23.312;2022-08-02T08:57:54;1.10;;;1.00;;
20036;SDS011;10179;42.640;23.312;2022-08-02T09:00:21;2.03;;;1.13;;
20036;SDS011;10179;42.640;23.312;2022-08-02T09:02:47;1.95;;;1.00;;
20036;SDS011;10179;42.640;23.312;2022-08-02T09:05:14;1.40;;;1.20;;
20036;SDS011;10179;42.640;23.312;2022-08-02T09:07:41;4.53;;;1.10;;
20036;SDS011;10179;42.640;23.312;2022-08-02T09:13:21;1.65;;;1.15;;
20036;SDS011;10179;42.640;23.312;2022-08-02T09:18:17;4.18;;;1.33;;
20036;SDS011;10179;42.640;23.312;2022-08-02T09:20:51;9.15;;;1.42;;
20036;SDS011;10179;42.640;23.312;2022-08-02T09:23:18;1.90;;;1.50;;
20036;SDS011;10179;42.640;23.312;2022-08-02T09:25:54;3.67;;;1.60;;
20036;SDS011;10179;42.640;23.312;2022-08-02T09:28:21;2.45;;;1.27;;
20036;SDS011;10179;42.640;23.312;2022-08-02T09:30:50;3.33;;;1.48;;
20036;SDS011;10179;42.640;23.312;2022-08-02T09:33:25;1.05;;;0.90;;
20036;SDS011;10179;42.640;23.312;2022-08-02T09:36:08;1.83;;;1.02;;
20036;SDS011;10179;42.640;23.312;2022-08-02T09:38:36;4.25;;;1.42;;
20036;SDS011;10179;42.640;23.312;2022-08-02T09:41:03;2.33;;;1.10;;
20036;SDS011;10179;42.640;23.312;2022-08-02T09:43:36;1.38;;;0.90;;
20036;SDS011;10179;42.640;23.312;2022-08-02T09:46:13;1.95;;;1.20;;
20036;SDS011;10179;42.640;23.312;2022-08-02T09:51:17;2.15;;;0.80;;
20036;SDS011;10179;42.640;23.312;2022-08-02T09:53:45;1.17;;;0.70;;
20036;SDS011;10179;42.640;23.312;2022-08-02T09:56:11;1.67;;;0.73;;
20036;SDS011;10179;42.640;23.312;2022-08-02T09:58:37;0.63;;;0.63;;
20036;SDS011;10179;42.640;23.312;2022-08-02T10:01:03;1.40;;;1.02;;
20036;SDS011;10179;42.640;23.312;2022-08-02T10:03:29;1.25;;;1.00;;
20036;SDS011;10179;42.640;23.312;2022-08-02T10:05:55;1.45;;;1.00;;
20036;SDS011;10179;42.640;23.312;2022-08-02T10:08:26;4.10;;;0.90;;
20036;SDS011;10179;42.640;23.312;2022-08-02T10:10:52;5.20;;;2.08;;
20036;SDS011;10179;42.640;23.312;2022-08-02T10:15:54;4.53;;;2.10;;
20036;SDS011;10179;42.640;23.312;2022-08-02T10:18:20;2.00;;;0.90;;
20036;SDS011;10179;42.640;23.312;2022-08-02T10:20:46;1.45;;;1.00;;
20036;SDS011;10179;42.640;23.312;2022-08-02T10:23:14;1.17;;;0.90;;
20036;SDS011;10179;42.640;23.312;2022-08-02T10:25:41;1.25;;;1.15;;
20036;SDS011;10179;42.640;23.312;2022-08-02T10:28:09;1.35;;;0.68;;
20036;SDS011;10179;42.640;23.312;2022-08-02T10:30:39;3.83;;;1.17;;
20036;SDS011;10179;42.640;23.312;2022-08-02T10:33:07;4.40;;;1.42;;
20036;SDS011;10179;42.640;23.312;2022-08-02T10:35:36;1.70;;;0.82;;
20036;SDS011;10179;42.640;23.312;2022-08-02T10:38:05;5.15;;;1.10;;
20036;SDS011;10179;42.640;23.312;2022-08-02T10:40:42;1.33;;;1.00;;
20036;SDS011;10179;42.640;23.312;2022-08-02T10:43:39;0.77;;;0.65;;
20036;SDS011;10179;42.640;23.312;2022-08-02T10:49:06;0.90;;;0.85;;
20036;SDS011;10179;42.640;23.312;2022-08-02T10:54:17;0.82;;;0.75;;
20036;SDS011;10179;42.640;23.312;2022-08-02T10:56:45;2.30;;;0.70;;
20036;SDS011;10179;42.640;23.312;2022-08-02T10:59:26;4.85;;;1.00;;
20036;SDS011;10179;42.640;23.312;2022-08-02T11:02:02;1.95;;;1.00;;
20036;SDS011;10179;42.640;23.312;2022-08-02T11:07:13;2.58;;;0.93;;
20036;SDS011;10179;42.640;23.312;2022-08-02T11:09:43;1.15;;;0.70;;
20036;SDS011;10179;42.640;23.312;2022-08-02T11:12:11;2.58;;;0.80;;
20036;SDS011;10179;42.640;23.312;2022-08-02T11:14:39;2.92;;;0.90;;
20036;SDS011;10179;42.640;23.312;2022-08-02T11:17:23;4.55;;;3.63;;
20036;SDS011;10179;42.640;23.312;2022-08-02T11:22:37;3.00;;;1.25;;
20036;SDS011;10179;42.640;23.312;2022-08-02T11:27:47;4.00;;;1.38;;
20036;SDS011;10179;42.640;23.312;2022-08-02T11:30:13;1.98;;;1.33;;
20036;SDS011;10179;42.640;23.312;2022-08-02T11:32:39;1.20;;;0.93;;
20036;SDS011;10179;42.640;23.312;2022-08-02T11:35:05;2.10;;;0.80;;
20036;SDS011;10179;42.640;23.312;2022-08-02T11:37:35;1.27;;;0.80;;
20036;SDS011;10179;42.640;23.312;2022-08-02T11:40:06;1.52;;;0.98;;
20036;SDS011;10179;42.640;23.312;2022-08-02T11:42:35;2.25;;;1.10;;
20036;SDS011;10179;42.640;23.312;2022-08-02T11:45:02;2.42;;;0.70;;
20036;SDS011;10179;42.640;23.312;2022-08-02T11:47:29;1.35;;;0.85;;
20036;SDS011;10179;42.640;23.312;2022-08-02T11:50:05;0.80;;;0.75;;
20036;SDS011;10179;42.640;23.312;2022-08-02T11:52:33;1.00;;;0.90;;
20036;SDS011;10179;42.640;23.312;2022-08-02T11:54:59;0.70;;;0.60;;
20036;SDS011;10179;42.640;23.312;2022-08-02T11:57:24;1.75;;;0.82;;
20036;SDS011;10179;42.640;23.312;2022-08-02T11:59:51;1.83;;;0.73;;
20036;SDS011;10179;42.640;23.312;2022-08-02T12:02:20;5.07;;;4.57;;
20036;SDS011;10179;42.640;23.312;2022-08-02T12:04:54;2.70;;;1.23;;
20036;SDS011;10179;42.640;23.312;2022-08-02T12:07:28;0.95;;;0.73;;
20036;SDS011;10179;42.640;23.312;2022-08-02T12:09:59;2.95;;;1.70;;
20036;SDS011;10179;42.640;23.312;2022-08-02T12:12:25;2.45;;;0.77;;
20036;SDS011;10179;42.640;23.312;2022-08-02T12:14:52;2.47;;;0.80;;
20036;SDS011;10179;42.640;23.312;2022-08-02T12:17:24;0.77;;;0.77;;
20036;SDS011;10179;42.640;23.312;2022-08-02T12:20:09;1.95;;;1.15;;
20036;SDS011;10179;42.640;23.312;2022-08-02T12:22:35;1.67;;;0.63;;
20036;SDS011;10179;42.640;23.312;2022-08-02T12:25:18;4.63;;;0.90;;
20036;SDS011;10179;42.640;23.312;2022-08-02T12:27:46;0.65;;;0.65;;
20036;SDS011;10179;42.640;23.312;2022-08-02T12:30:13;1.13;;;0.70;;
20036;SDS011;10179;42.640;23.312;2022-08-02T12:32:41;1.35;;;0.70;;
20036;SDS011;10179;42.640;23.312;2022-08-02T12:37:32;3.42;;;0.82;;
20036;SDS011;10179;42.640;23.312;2022-08-02T12:39:58;2.40;;;0.77;;
20036;SDS011;10179;42.640;23.312;2022-08-02T12:42:52;1.63;;;0.88;;
20036;SDS011;10179;42.640;23.312;2022-08-02T12:45:19;3.05;;;1.08;;
20036;SDS011;10179;42.640;23.312;2022-08-02T12:47:49;1.92;;;1.20;;
20036;SDS011;10179;42.640;23.312;2022-08-02T12:50:26;2.78;;;1.90;;
20036;SDS011;10179;42.640;23.312;2022-08-02T12:55:49;2.75;;;0.90;;
20036;SDS011;10179;42.640;23.312;2022-08-02T12:58:16;1.05;;;0.70;;
20036;SDS011;10179;42.640;23.312;2022-08-02T13:00:42;3.40;;;1.70;;
20036;SDS011;10179;42.640;23.312;2022-08-02T13:03:17;0.90;;;0.60;;
20036;SDS011;10179;42.640;23.312;2022-08-02T13:05:44;2.35;;;0.75;;
20036;SDS011;10179;42.640;23.312;2022-08-02T13:08:09;2.30;;;0.70;;
20036;SDS011;10179;42.640;23.312;2022-08-02T13:10:35;0.80;;;0.57;;
20036;SDS011;10179;42.640;23.312;2022-08-02T13:13:00;1.05;;;0.60;;
20036;SDS011;10179;42.640;23.312;2022-08-02T13:15:26;3.15;;;0.80;;
20036;SDS011;10179;42.640;23.312;2022-08-02T13:17:52;0.90;;;0.60;;
20036;SDS011;10179;42.640;23.312;2022-08-02T13:20:17;0.73;;;0.50;;
20036;SDS011;10179;42.640;23.312;2022-08-02T13:22:43;2.08;;;0.55;;
20036;SDS011;10179;42.640;23.312;2022-08-02T13:25:08;2.60;;;0.70;;
20036;SDS011;10179;42.640;23.312;2022-08-02T13:27:34;1.73;;;1.13;;
20036;SDS011;10179;42.640;23.312;2022-08-02T13:30:02;1.50;;;0.80;;
20036;SDS011;10179;42.640;23.312;2022-08-02T13:32:28;0.47;;;0.40;;
20036;SDS011;10179;42.640;23.312;2022-08-02T13:34:55;0.57;;;0.57;;
20036;SDS011;10179;42.640;23.312;2022-08-02T13:37:22;1.58;;;1.10;;
20036;SDS011;10179;42.640;23.312;2022-08-02T13:39:48;0.90;;;0.80;;
20036;SDS011;10179;42.640;23.312;2022-08-02T13:42:14;0.60;;;0.60;;
20036;SDS011;10179;42.640;23.312;2022-08-02T13:44:39;2.38;;;0.70;;
20036;SDS011;10179;42.640;23.312;2022-08-02T13:47:05;2.05;;;0.52;;
20036;SDS011;10179;42.640;23.312;2022-08-02T13:49:30;2.10;;;0.70;;
20036;SDS011;10179;42.640;23.312;2022-08-02T13:51:56;6.07;;;0.70;;
20036;SDS011;10179;42.640;23.312;2022-08-02T13:54:21;0.80;;;0.75;;
20036;SDS011;10179;42.640;23.312;2022-08-02T13:56:47;5.07;;;0.80;;
20036;SDS011;10179;42.640;23.312;2022-08-02T13:59:13;0.70;;;0.55;;
20036;SDS011;10179;42.640;23.312;2022-08-02T14:01:38;4.75;;;0.80;;
20036;SDS011;10179;42.640;23.312;2022-08-02T14:04:04;1.38;;;0.73;;
20036;SDS011;10179;42.640;23.312;2022-08-02T14:06:29;3.85;;;0.70;;
20036;SDS011;10179;42.640;23.312;2022-08-02T14:08:55;2.28;;;1.80;;
20036;SDS011;10179;42.640;23.312;2022-08-02T14:11:20;3.65;;;1.10;;
20036;SDS011;10179;42.640;23.312;2022-08-02T14:13:46;5.00;;;0.70;;
20036;SDS011;10179;42.640;23.312;2022-08-02T14:16:11;0.73;;;0.50;;
20036;SDS011;10179;42.640;23.312;2022-08-02T14:18:37;1.33;;;0.70;;
20036;SDS011;10179;42.640;23.312;2022-08-02T14:21:02;0.50;;;0.50;;
20036;SDS011;10179;42.640;23.312;2022-08-02T14:23:28;0.90;;;0.57;;
20036;SDS011;10179;42.640;23.312;2022-08-02T14:25:55;2.78;;;0.80;;
20036;SDS011;10179;42.640;23.312;2022-08-02T14:28:21;1.67;;;0.88;;
20036;SDS011;10179;42.640;23.312;2022-08-02T14:30:46;2.28;;;0.77;;
20036;SDS011;10179;42.640;23.312;2022-08-02T14:33:12;0.90;;;0.60;;
20036;SDS011;10179;42.640;23.312;2022-08-02T14:35:37;0.95;;;0.75;;
20036;SDS011;10179;42.640;23.312;2022-08-02T14:38:03;1.83;;;0.80;;
20036;SDS011;10179;42.640;23.312;2022-08-02T14:40:28;4.85;;;0.70;;
20036;SDS011;10179;42.640;23.312;2022-08-02T14:42:54;1.67;;;0.70;;
20036;SDS011;10179;42.640;23.312;2022-08-02T14:45:19;0.68;;;0.60;;
20036;SDS011;10179;42.640;23.312;2022-08-02T14:47:50;1.23;;;0.70;;
20036;SDS011;10179;42.640;23.312;2022-08-02T14:50:16;1.17;;;1.00;;
20036;SDS011;10179;42.640;23.312;2022-08-02T14:52:43;0.57;;;0.52;;
20036;SDS011;10179;42.640;23.312;2022-08-02T14:55:09;1.50;;;1.02;;
20036;SDS011;10179;42.640;23.312;2022-08-02T14:57:34;2.50;;;0.88;;
20036;SDS011;10179;42.640;23.312;2022-08-02T15:00:00;2.47;;;0.70;;
20036;SDS011;10179;42.640;23.312;2022-08-02T15:02:26;2.35;;;0.70;;
20036;SDS011;10179;42.640;23.312;2022-08-02T15:04:52;1.40;;;0.60;;
20036;SDS011;10179;42.640;23.312;2022-08-02T15:07:17;2.03;;;1.38;;
20036;SDS011;10179;42.640;23.312;2022-08-02T15:09:43;1.50;;;0.85;;
20036;SDS011;10179;42.640;23.312;2022-08-02T15:12:10;0.80;;;0.77;;
20036;SDS011;10179;42.640;23.312;2022-08-02T15:14:36;0.77;;;0.60;;
20036;SDS011;10179;42.640;23.312;2022-08-02T15:17:03;0.75;;;0.60;;
20036;SDS011;10179;42.640;23.312;2022-08-02T15:19:29;0.73;;;0.70;;
20036;SDS011;10179;42.640;23.312;2022-08-02T15:21:54;3.45;;;0.80;;
20036;SDS011;10179;42.640;23.312;2022-08-02T15:24:19;2.28;;;0.63;;